Time;durP1;ratioP1;P1;durP2;ratioP2;P2;SDS_P1;SDS_P2;PMS_P1;PMS_P2;Temp;Humidity;BMP_temperature;BMP_pressure;BME280_temperature;BME280_humidity;BME280_pressure;Samples;Min_cycle;Max_cycle;Signal;HPM_P1;HPM_P2
2023/09/09 00:02:22;;;;;;;9.05;7.05;;;;;;;25.02;57.52;101517.47;5059149;27;20045;-67
2023/09/09 00:04:54;;;;;;;8.60;6.18;;;;;;;24.98;57.49;101512.59;5053847;28;20041;-67
2023/09/09 00:07:22;;;;;;;8.90;6.43;;;;;;;24.97;57.69;101512.88;5053890;28;20128;-67
2023/09/09 00:09:50;;;;;;;8.80;7.10;;;;;;;24.96;57.53;101516.72;5059442;27;20069;-67
2023/09/09 00:12:18;;;;;;;8.90;7.05;;;;;;;24.94;57.52;101510.72;5071665;27;21261;-66
2023/09/09 00:14:46;;;;;;;8.75;6.20;;;;;;;24.92;57.74;101512.94;5056768;27;20049;-67
2023/09/09 00:17:13;;;;;;;9.30;7.07;;;;;;;24.90;57.47;101506.94;5059980;27;20121;-66
2023/09/09 00:19:41;;;;;;;12.70;7.93;;;;;;;24.89;57.58;101510.78;5057535;28;20056;-66
2023/09/09 00:22:10;;;;;;;9.98;6.70;;;;;;;24.87;57.65;101507.53;5062200;28;20090;-67
2023/09/09 00:24:38;;;;;;;11.00;7.13;;;;;;;24.85;57.78;101515.25;5068261;27;20060;-67
2023/09/09 00:27:06;;;;;;;8.85;6.78;;;;;;;24.83;57.59;101501.81;5063840;28;20045;-66
2023/09/09 00:29:34;;;;;;;9.63;7.20;;;;;;;24.81;57.65;101504.06;5061560;27;20125;-66
2023/09/09 00:32:01;;;;;;;15.68;7.82;;;;;;;24.80;57.82;101505.16;5062512;27;20466;-67
2023/09/09 00:34:29;;;;;;;9.70;7.60;;;;;;;24.78;57.98;101498.34;5060599;28;20045;-67
2023/09/09 00:36:57;;;;;;;9.48;7.10;;;;;;;24.76;58.08;101500.56;5058352;27;20200;-67
2023/09/09 00:39:26;;;;;;;8.23;7.10;;;;;;;24.75;57.91;101498.94;5055768;28;20045;-66
2023/09/09 00:41:54;;;;;;;9.55;7.68;;;;;;;24.73;57.87;101503.94;5060606;28;20521;-66
2023/09/09 00:44:22;;;;;;;8.77;7.63;;;;;;;24.71;57.92;101503.41;5062580;27;20049;-67
2023/09/09 00:46:51;;;;;;;11.10;7.35;;;;;;;24.69;58.01;101502.91;5060421;28;20049;-66
2023/09/09 00:49:21;;;;;;;13.98;8.40;;;;;;;24.66;58.02;101498.81;5062198;27;20072;-66
2023/09/09 00:51:49;;;;;;;10.13;7.70;;;;;;;24.65;58.04;101499.94;5061240;27;20383;-66
2023/09/09 00:54:17;;;;;;;11.00;8.57;;;;;;;24.62;58.09;101506.84;5061601;28;20070;-66
2023/09/09 00:56:47;;;;;;;10.65;7.35;;;;;;;24.57;58.01;101500.63;5062682;27;20052;-66
2023/09/09 00:59:14;;;;;;;10.38;7.53;;;;;;;24.58;58.00;101499.50;5058178;28;20098;-66
2023/09/09 01:01:42;;;;;;;8.52;7.50;;;;;;;24.56;58.12;101496.25;5068165;27;20049;-67
2023/09/09 01:04:10;;;;;;;10.68;8.02;;;;;;;24.51;58.45;101493.56;5061543;27;20045;-67
2023/09/09 01:06:38;;;;;;;9.40;8.02;;;;;;;24.53;58.44;101496.84;5056776;27;20489;-66
2023/09/09 01:09:08;;;;;;;13.30;8.30;;;;;;;24.50;58.32;101502.94;5060508;28;20067;-67
2023/09/09 01:11:36;;;;;;;11.98;8.57;;;;;;;24.49;58.53;101502.13;5056630;27;20053;-66
2023/09/09 01:14:05;;;;;;;10.27;8.88;;;;;;;24.48;58.42;101502.41;5063788;28;20488;-66
2023/09/09 01:16:34;;;;;;;11.45;9.20;;;;;;;24.47;58.57;101503.53;5058943;28;20121;-67
2023/09/09 01:19:02;;;;;;;9.80;8.80;;;;;;;24.44;58.47;101504.13;5062517;27;20139;-67
2023/09/09 01:21:32;;;;;;;11.15;9.68;;;;;;;24.42;58.75;101498.94;5060232;28;20486;-67
2023/09/09 01:24:02;;;;;;;9.43;8.43;;;;;;;24.39;58.68;101490.47;5060303;27;20072;-66
2023/09/09 01:26:30;;;;;;;11.27;9.05;;;;;;;24.39;59.10;101495.97;5058934;27;21456;-66
2023/09/09 01:28:58;;;;;;;14.15;9.55;;;;;;;24.38;58.64;101494.34;5060546;28;20045;-66
2023/09/09 01:31:25;;;;;;;10.52;9.30;;;;;;;24.36;58.66;101493.81;5061018;27;20059;-67
2023/09/09 01:33:56;;;;;;;14.85;9.25;;;;;;;24.34;58.84;101497.69;5061710;28;20056;-66
2023/09/09 01:36:25;;;;;;;13.63;10.10;;;;;;;24.34;58.84;101496.84;5064036;27;20049;-67
2023/09/09 01:38:52;;;;;;;12.63;9.93;;;;;;;24.32;58.79;101491.66;5062901;28;20045;-67
2023/09/09 01:41:21;;;;;;;14.27;10.18;;;;;;;24.31;58.73;101495.53;5053759;27;20057;-66
2023/09/09 01:43:49;;;;;;;13.70;10.05;;;;;;;24.31;58.80;101501.03;5063365;27;20053;-66
2023/09/09 01:46:17;;;;;;;14.30;10.18;;;;;;;24.29;58.68;101491.44;5058690;27;20070;-67
2023/09/09 01:48:45;;;;;;;12.27;9.70;;;;;;;24.29;58.58;101492.25;5058911;27;20063;-67
2023/09/09 01:51:13;;;;;;;12.00;9.45;;;;;;;24.29;58.77;101488.69;5059425;27;20057;-66
2023/09/09 01:53:41;;;;;;;12.15;9.60;;;;;;;24.27;58.55;101490.91;5059243;27;20053;-67
2023/09/09 01:56:08;;;;;;;14.23;9.98;;;;;;;24.25;58.80;101493.16;5063430;27;20056;-66
2023/09/09 01:58:37;;;;;;;14.07;11.05;;;;;;;24.25;58.61;101493.16;5062198;27;20073;-66
2023/09/09 02:01:05;;;;;;;12.05;9.43;;;;;;;24.23;58.72;101496.19;5056644;27;20084;-67
2023/09/09 02:03:33;;;;;;;12.82;10.43;;;;;;;24.23;58.89;101498.13;5058346;28;20420;-67
2023/09/09 02:06:01;;;;;;;11.50;10.27;;;;;;;24.20;58.87;101485.00;5055028;28;20071;-67
2023/09/09 02:08:29;;;;;;;13.88;10.35;;;;;;;24.18;58.71;101490.78;5059427;27;20043;-67
2023/09/09 02:10:57;;;;;;;14.90;9.95;;;;;;;24.18;58.56;101489.97;5056987;27;20057;-66
2023/09/09 02:13:25;;;;;;;12.57;9.70;;;;;;;24.17;58.99;101482.84;5057323;27;20146;-66
2023/09/09 02:16:03;;;;;;;11.70;10.40;;;;;;;24.16;58.85;101486.69;5053356;28;20144;-66
2023/09/09 02:18:31;;;;;;;12.23;10.90;;;;;;;24.14;58.74;101489.75;5060005;27;20056;-66
2023/09/09 02:20:59;;;;;;;13.60;11.30;;;;;;;24.13;58.50;101484.53;5056514;27;20148;-66
2023/09/09 02:23:28;;;;;;;13.00;10.77;;;;;;;24.12;58.70;101485.66;5058800;28;20400;-66
2023/09/09 02:25:55;;;;;;;12.63;11.10;;;;;;;24.10;58.77;101488.69;5056749;27;20064;-66
2023/09/09 02:28:24;;;;;;;13.02;11.13;;;;;;;24.10;59.22;101487.88;5053266;27;20136;-66
2023/09/09 02:30:54;;;;;;;14.98;11.38;;;;;;;24.07;58.86;101485.72;5054114;27;20045;-66
2023/09/09 02:33:22;;;;;;;14.57;10.50;;;;;;;24.05;59.15;101485.22;5056738;28;20064;-66
2023/09/09 02:35:50;;;;;;;12.65;10.52;;;;;;;24.04;59.07;101491.81;5054506;28;20136;-66
2023/09/09 02:38:18;;;;;;;13.23;10.88;;;;;;;24.00;59.01;101486.91;5056929;27;20694;-66
2023/09/09 02:40:46;;;;;;;13.98;12.25;;;;;;;23.98;59.02;101486.41;5055672;27;20078;-66
2023/09/09 02:43:14;;;;;;;14.63;11.48;;;;;;;23.97;59.15;101481.19;5056445;27;20094;-66
2023/09/09 02:45:42;;;;;;;14.45;12.18;;;;;;;23.95;59.54;101483.44;5055378;27;20602;-66
2023/09/09 02:48:11;;;;;;;14.82;12.80;;;;;;;23.93;58.96;101485.66;5053475;27;20379;-66
2023/09/09 02:50:39;;;;;;;15.40;11.93;;;;;;;23.90;59.02;101489.81;5055693;28;20108;-65
2023/09/09 02:53:06;;;;;;;14.20;11.82;;;;;;;23.89;59.57;101485.44;5056759;28;20470;-66
2023/09/09 02:55:34;;;;;;;15.55;12.63;;;;;;;23.88;59.24;101494.78;5056061;27;20053;-66
2023/09/09 02:58:02;;;;;;;16.90;13.43;;;;;;;23.86;59.21;101494.25;5056616;28;20060;-66
2023/09/09 03:00:31;;;;;;;15.75;13.40;;;;;;;23.83;59.21;101489.34;5054557;28;20174;-66
2023/09/09 03:02:59;;;;;;;17.77;12.98;;;;;;;23.81;59.64;101486.09;5055064;27;20057;-66
2023/09/09 03:05:28;;;;;;;15.20;13.60;;;;;;;23.80;59.49;101489.13;5055806;28;20059;-66
2023/09/09 03:07:58;;;;;;;16.92;13.38;;;;;;;23.74;59.61;101482.88;5057167;27;20044;-66
2023/09/09 03:10:26;;;;;;;18.42;14.23;;;;;;;23.75;59.71;101487.25;5051293;28;20037;-66
2023/09/09 03:12:56;;;;;;;17.88;13.73;;;;;;;23.73;60.00;101483.19;5059664;28;20041;-66
2023/09/09 03:15:24;;;;;;;16.02;13.48;;;;;;;23.72;59.41;101487.84;5054558;27;20052;-66
2023/09/09 03:17:52;;;;;;;17.92;14.05;;;;;;;23.71;59.78;101490.88;5058805;27;20045;-66
2023/09/09 03:20:20;;;;;;;15.93;13.15;;;;;;;23.68;59.77;101492.28;5058103;27;20109;-66
2023/09/09 03:22:51;;;;;;;19.25;13.07;;;;;;;23.65;59.86;101487.41;5055595;28;20136;-66
2023/09/09 03:25:19;;;;;;;17.08;13.98;;;;;;;23.64;59.91;101494.00;5056552;28;20177;-66
2023/09/09 03:27:47;;;;;;;15.77;14.07;;;;;;;23.63;59.59;101495.09;5056048;27;20078;-65
2023/09/09 03:30:15;;;;;;;17.83;13.57;;;;;;;23.61;60.01;101492.66;5058131;27;20049;-66
2023/09/09 03:32:42;;;;;;;16.95;13.10;;;;;;;23.60;59.62;101487.47;5059807;28;20045;-65
2023/09/09 03:35:10;;;;;;;16.90;13.60;;;;;;;23.59;59.70;101491.31;5065349;27;20068;-66
2023/09/09 03:37:38;;;;;;;16.63;12.70;;;;;;;23.58;59.49;101495.16;5058051;28;20321;-66
2023/09/09 03:40:08;;;;;;;18.60;14.98;;;;;;;23.56;59.76;101489.16;5057165;27;20105;-66
2023/09/09 03:42:38;;;;;;;17.30;14.07;;;;;;;23.54;59.80;101488.63;5059638;28;20112;-66
2023/09/09 03:45:07;;;;;;;18.33;15.00;;;;;;;23.54;59.53;101491.38;5057054;28;20045;-67
2023/09/09 03:47:35;;;;;;;16.73;13.68;;;;;;;23.52;59.75;101488.91;5057909;28;20045;-65
2023/09/09 03:50:04;;;;;;;20.08;14.02;;;;;;;23.52;59.73;101488.06;5058679;27;20047;-65
2023/09/09 03:52:32;;;;;;;17.13;14.07;;;;;;;23.51;59.87;101498.25;5059155;28;20049;-66
2023/09/09 03:54:59;;;;;;;19.85;14.93;;;;;;;23.49;59.75;101491.41;5057848;27;20551;-65
2023/09/09 03:57:29;;;;;;;19.10;15.70;;;;;;;23.49;59.43;101499.63;5062515;28;20074;-66
2023/09/09 03:59:56;;;;;;;18.92;14.40;;;;;;;23.47;59.72;101494.44;5063003;27;20550;-67
2023/09/09 04:02:24;;;;;;;18.55;15.10;;;;;;;23.46;59.56;101503.78;5062831;28;20041;-65
2023/09/09 04:04:52;;;;;;;22.63;15.85;;;;;;;23.45;59.62;101501.34;5061018;28;20180;-66
2023/09/09 04:07:20;;;;;;;18.70;15.88;;;;;;;23.43;59.89;101492.56;5060529;27;20470;-66
2023/09/09 04:09:48;;;;;;;18.75;15.52;;;;;;;23.41;59.80;101497.53;5061380;27;20045;-65
2023/09/09 04:12:16;;;;;;;19.55;16.23;;;;;;;23.41;59.62;101503.03;5068542;27;20059;-66
2023/09/09 04:14:45;;;;;;;19.88;16.20;;;;;;;23.39;59.92;101497.81;5058610;27;20060;-66
2023/09/09 04:17:13;;;;;;;18.40;15.25;;;;;;;23.37;59.55;101494.56;5065507;27;20073;-65
2023/09/09 04:19:41;;;;;;;21.13;16.73;;;;;;;23.36;59.76;101499.22;5057457;27;20052;-66
2023/09/09 04:22:08;;;;;;;19.58;16.55;;;;;;;23.34;59.53;101495.16;5061507;27;20049;-66
2023/09/09 04:24:36;;;;;;;23.75;17.77;;;;;;;23.35;59.86;101499.53;5057427;27;20045;-66
2023/09/09 04:27:05;;;;;;;20.65;16.42;;;;;;;23.32;59.91;101497.38;5063263;28;20055;-66
2023/09/09 04:29:33;;;;;;;19.50;16.42;;;;;;;23.30;59.60;101494.91;5062491;27;20059;-66
2023/09/09 04:32:02;;;;;;;21.95;16.40;;;;;;;;;;5059523;28;20045;-66
2023/09/09 04:34:29;;;;;;;22.13;17.90;;;;;;;23.24;59.63;101493.34;5061924;27;20486;-66
2023/09/09 04:36:57;;;;;;;18.75;16.08;;;;;;;23.23;60.14;101491.69;5056023;28;20041;-66
2023/09/09 04:39:25;;;;;;;21.55;17.52;;;;;;;23.21;60.13;101498.56;5058165;27;20057;-66
2023/09/09 04:41:53;;;;;;;21.87;17.37;;;;;;;23.20;59.99;101494.19;4709113;27;10000434;-67
2023/09/09 04:44:21;;;;;;;21.67;16.92;;;;;;;23.18;60.02;101493.69;5053675;28;20774;-67
2023/09/09 04:46:49;;;;;;;21.50;18.45;;;;;;;23.16;60.25;101496.72;5074863;27;20061;-68
2023/09/09 04:49:18;;;;;;;21.50;18.13;;;;;;;23.15;60.19;101491.50;5064150;27;20041;-68
2023/09/09 04:51:46;;;;;;;18.88;16.55;;;;;;;23.13;60.26;101510.19;5053747;28;20064;-68
2023/09/09 04:54:14;;;;;;;24.02;17.73;;;;;;;23.11;59.97;101507.72;5062616;28;20048;-68
2023/09/09 04:56:42;;;;;;;20.20;17.27;;;;;;;23.08;59.83;101502.81;5061422;27;20117;-69
2023/09/09 04:59:09;;;;;;;21.85;16.85;;;;;;;23.07;60.16;101505.84;5059140;27;20052;-68
2023/09/09 05:01:37;;;;;;;19.98;16.63;;;;;;;23.03;60.25;101500.13;5056439;28;20069;-67
2023/09/09 05:04:07;;;;;;;25.40;17.70;;;;;;;23.04;60.08;101513.56;5053563;27;20045;-66
2023/09/09 05:06:36;;;;;;;21.38;16.88;;;;;;;23.00;60.09;101512.50;5051291;27;20182;-64
2023/09/09 05:09:04;;;;;;;19.10;16.35;;;;;;;22.99;59.85;101507.31;5049865;27;20053;-64
2023/09/09 05:11:32;;;;;;;19.35;16.23;;;;;;;22.98;60.06;101519.38;5076632;27;20056;-64
2023/09/09 05:14:00;;;;;;;21.17;15.90;;;;;;;22.96;59.80;101513.38;5056837;28;20586;-64
2023/09/09 05:16:28;;;;;;;22.17;17.15;;;;;;;22.93;60.38;101513.94;5054169;27;20045;-64
2023/09/09 05:18:56;;;;;;;20.05;15.18;;;;;;;22.92;59.90;101520.53;5058172;27;20293;-64
2023/09/09 05:21:24;;;;;;;20.60;15.07;;;;;;;22.89;60.03;101510.13;5052975;28;20063;-65
2023/09/09 05:23:53;;;;;;;21.05;14.55;;;;;;;22.88;60.26;101522.22;5070502;27;20349;-64
2023/09/09 05:26:21;;;;;;;18.90;14.38;;;;;;;22.85;60.00;101515.38;5055538;27;20056;-64
2023/09/09 05:28:49;;;;;;;17.55;14.40;;;;;;;22.84;60.22;101519.22;5052131;27;20048;-65
2023/09/09 05:31:17;;;;;;;18.48;14.15;;;;;;;22.84;60.26;101518.41;5050348;28;20461;-64
2023/09/09 05:33:44;;;;;;;19.42;14.93;;;;;;;22.83;59.98;101528.56;5056771;28;20057;-64
2023/09/09 05:36:12;;;;;;;15.82;13.80;;;;;;;22.82;60.15;101531.59;5050925;27;20112;-64
2023/09/09 05:38:40;;;;;;;17.15;14.50;;;;;;;22.80;59.70;101523.66;5053746;28;20097;-64
2023/09/09 05:41:09;;;;;;;16.92;13.77;;;;;;;22.80;60.16;101537.34;5052032;27;20044;-64
2023/09/09 05:43:37;;;;;;;17.85;13.65;;;;;;;22.78;59.71;101536.78;5055251;28;20045;-64
2023/09/09 05:46:06;;;;;;;16.42;12.80;;;;;;;22.77;59.78;101532.41;5053967;27;20057;-64
2023/09/09 05:48:34;;;;;;;15.25;13.07;;;;;;;22.75;60.05;101523.66;5058863;28;20071;-65
2023/09/09 05:51:02;;;;;;;18.00;14.35;;;;;;;22.74;59.91;101533.81;5053612;27;20037;-65
2023/09/09 05:53:30;;;;;;;16.25;13.18;;;;;;;22.74;59.83;101536.53;5050559;27;20049;-66
2023/09/09 05:55:58;;;;;;;18.50;13.93;;;;;;;22.68;59.85;101523.97;5052587;28;20045;-68
2023/09/09 05:58:28;;;;;;;18.83;13.45;;;;;;;22.70;59.92;101537.41;5051742;28;20351;-66
2023/09/09 06:00:55;;;;;;;16.23;13.30;;;;;;;22.69;60.19;101544.81;5052586;27;20110;-66
2023/09/09 06:03:26;;;;;;;16.45;12.38;;;;;;;22.68;60.18;101537.69;5056115;27;20118;-67
2023/09/09 06:05:54;;;;;;;17.45;13.55;;;;;;;22.67;59.79;101538.78;5048696;28;20075;-67
2023/09/09 06:08:22;;;;;;;15.30;12.73;;;;;;;22.68;59.88;101545.09;5051521;28;20072;-68
2023/09/09 06:10:50;;;;;;;16.13;13.75;;;;;;;22.67;60.19;101549.75;5054808;27;20430;-67
2023/09/09 06:13:18;;;;;;;17.17;13.15;;;;;;;22.67;60.25;101557.16;5054274;27;20217;-68
2023/09/09 06:15:47;;;;;;;20.90;18.00;;;;;;;22.65;60.12;101549.22;5049693;27;20424;-66
2023/09/09 06:18:15;;;;;;;27.17;21.05;;;;;;;22.66;60.80;101552.78;5082348;27;20115;-67
2023/09/09 06:20:47;;;;;;;19.73;17.08;;;;;;;22.66;60.30;101555.50;5060322;27;20075;-66
2023/09/09 06:23:15;;;;;;;25.25;18.00;;;;;;;22.64;60.35;101553.06;5054431;28;20712;-67
2023/09/09 06:25:42;;;;;;;19.77;16.45;;;;;;;22.68;60.24;101556.03;5050652;28;20061;-67
2023/09/09 06:28:10;;;;;;;22.08;17.25;;;;;;;22.58;60.24;101545.16;5057451;27;20121;-67
2023/09/09 06:30:42;;;;;;;20.23;15.20;;;;;;;22.70;60.33;101568.34;5055799;27;20060;-67
2023/09/09 06:33:12;;;;;;;20.67;15.77;;;;;;;22.71;60.57;101566.44;5065995;27;20063;-68
2023/09/09 06:35:48;;;;;;;20.00;13.35;;;;;;;22.70;60.23;101568.34;5063556;27;20081;-68
2023/09/09 06:38:16;;;;;;;;;;;;;;;22.70;60.11;101568.34;5058920;27;20101;-68
2023/09/09 06:40:44;;;;;;;17.40;13.60;;;;;;;22.70;60.01;101568.34;5064436;27;19925;-68
2023/09/09 06:43:13;;;;;;;17.30;14.15;;;;;;;22.70;60.52;101578.50;5053576;27;20080;-68
2023/09/09 06:45:41;;;;;;;17.15;14.32;;;;;;;22.68;60.35;101575.22;5053866;28;20057;-69
2023/09/09 06:48:09;;;;;;;18.38;14.32;;;;;;;22.68;60.20;101569.75;5058879;27;20064;-69
2023/09/09 06:50:38;;;;;;;18.02;14.25;;;;;;;22.66;60.22;101575.50;5056303;27;20573;-69
2023/09/09 06:53:06;;;;;;;15.38;13.48;;;;;;;22.64;60.31;101572.25;5054814;28;20072;-69
2023/09/09 06:55:34;;;;;;;16.33;13.80;;;;;;;22.64;60.28;101577.72;5056781;27;20112;-69
2023/09/09 06:58:03;;;;;;;18.95;15.02;;;;;;;22.65;60.64;101584.03;5058916;28;20063;-68
2023/09/09 07:00:31;;;;;;;16.15;12.93;;;;;;;22.62;60.43;101579.13;5052594;28;20052;-68
2023/09/09 07:02:59;;;;;;;18.52;14.52;;;;;;;22.64;60.27;101585.13;5056517;27;20048;-69
2023/09/09 07:05:27;;;;;;;17.95;14.63;;;;;;;22.63;60.64;101586.22;5054349;28;20049;-69
2023/09/09 07:07:56;;;;;;;20.80;14.52;;;;;;;22.62;60.57;101584.59;5057080;27;20109;-68
2023/09/09 07:10:24;;;;;;;21.98;14.05;;;;;;;22.51;60.55;101567.44;5052805;27;20321;-68
2023/09/09 07:12:52;;;;;;;18.95;13.98;;;;;;;22.60;60.71;101584.06;5057546;27;20081;-66
2023/09/09 07:15:20;;;;;;;47.25;37.28;;;;;;;22.60;62.13;101584.06;5048999;27;20102;-67
2023/09/09 07:17:48;;;;;;;38.28;30.35;;;;;;;22.58;61.78;101583.53;5052032;27;20067;-68
2023/09/09 07:20:17;;;;;;;44.70;34.17;;;;;;;22.59;61.40;101583.25;5052438;27;20101;-69
2023/09/09 07:22:44;;;;;;;37.22;30.13;;;;;;;22.58;61.31;101589.81;5060900;27;20145;-67
2023/09/09 07:25:14;;;;;;;44.03;33.60;;;;;;;22.59;61.48;101583.25;5050649;27;20049;-66
2023/09/09 07:27:42;;;;;;;52.83;42.55;;;;;;;22.59;62.72;101596.13;5052702;27;20053;-70
2023/09/09 07:30:10;;;;;;;56.60;45.58;;;;;;;22.59;62.58;101599.69;5052756;27;20053;-68
2023/09/09 07:32:38;;;;;;;58.47;43.65;;;;;;;22.59;62.14;101591.47;5052055;27;20053;-69
2023/09/09 07:35:07;;;;;;;58.17;44.75;;;;;;;22.60;62.03;101598.56;5051806;27;20155;-69
2023/09/09 07:37:35;;;;;;;54.65;42.22;;;;;;;22.62;62.24;101598.28;5087222;27;20067;-70
2023/09/09 07:40:04;;;;;;;53.47;40.42;;;;;;;22.62;61.76;101601.03;5049815;27;20070;-66
2023/09/09 07:42:33;;;;;;;48.50;37.28;;;;;;;22.63;62.05;101603.50;5076741;27;20053;-69
2023/09/09 07:45:01;;;;;;;44.08;34.38;;;;;;;22.64;62.02;101607.88;5063766;27;20049;-69
2023/09/09 07:47:29;;;;;;;44.05;33.20;;;;;;;22.66;61.53;101611.13;5052635;27;20041;-71
2023/09/09 07:49:56;;;;;;;46.97;35.28;;;;;;;22.55;61.76;101586.81;5055316;27;20041;-68
2023/09/09 07:52:24;;;;;;;44.55;33.17;;;;;;;22.68;61.80;101605.38;5059230;28;20041;-68
2023/09/09 07:54:52;;;;;;;43.42;34.03;;;;;;;22.68;61.75;101606.19;5064029;27;20058;-68
2023/09/09 07:57:20;;;;;;;40.17;31.42;;;;;;;22.68;61.71;101610.84;5057108;28;20065;-69
2023/09/09 07:59:50;;;;;;;42.72;32.92;;;;;;;22.66;61.67;101605.66;5054418;27;20045;-68
2023/09/09 08:02:17;;;;;;;43.90;30.98;;;;;;;22.68;62.03;101605.38;5052933;28;20094;-68
2023/09/09 08:04:45;;;;;;;41.67;31.50;;;;;;;22.69;61.71;101601.53;5058891;28;20052;-68
2023/09/09 08:07:13;;;;;;;40.85;30.17;;;;;;;22.71;61.92;101607.53;5057479;28;20049;-68
2023/09/09 08:09:41;;;;;;;40.95;31.70;;;;;;;22.70;62.23;101614.94;5058696;27;20112;-69
2023/09/09 08:12:09;;;;;;;39.63;30.58;;;;;;;22.70;62.00;101609.47;5055656;27;20044;-68
2023/09/09 08:14:37;;;;;;;37.92;29.95;;;;;;;22.70;61.89;101611.38;5064722;27;20047;-68
2023/09/09 08:17:06;;;;;;;39.40;30.50;;;;;;;22.64;62.20;101598.81;5059861;27;20046;-67
2023/09/09 08:19:34;;;;;;;40.50;30.83;;;;;;;22.72;62.11;101609.19;5055607;27;20200;-65
2023/09/09 08:22:02;;;;;;;92.68;34.53;;;;;;;22.65;62.15;101605.94;5055073;27;20057;-68
2023/09/09 08:24:30;;;;;;;118.63;36.17;;;;;;;22.74;62.45;101626.16;5054321;28;20197;-67
2023/09/09 08:26:58;;;;;;;98.57;33.05;;;;;;;22.76;62.33;101625.88;5056436;28;20065;-68
2023/09/09 08:29:26;;;;;;;69.65;31.38;;;;;;;22.75;62.19;101622.31;5054255;27;20057;-68
2023/09/09 08:31:54;;;;;;;78.45;29.10;;;;;;;22.72;62.44;101626.44;5054035;28;20060;-65
2023/09/09 08:34:23;;;;;;;69.22;27.10;;;;;;;22.78;62.31;101629.97;5059686;27;20052;-66
2023/09/09 08:36:51;;;;;;;56.17;25.88;;;;;;;22.77;62.02;101625.59;5052876;28;20067;-67
2023/09/09 08:39:19;;;;;;;60.88;25.83;;;;;;;22.80;62.11;101626.97;5053787;28;20085;-67
2023/09/09 08:41:57;;;;;;;73.20;23.85;;;;;;;22.70;62.06;101616.88;5054707;27;20049;-67
2023/09/09 08:44:33;;;;;;;64.43;21.17;;;;;;;22.82;62.16;101631.06;5058249;28;20045;-65
2023/09/09 08:47:00;;;;;;;35.67;18.85;;;;;;;22.83;62.10;101631.88;5061291;27;20082;-66
2023/09/09 08:49:31;;;;;;;36.95;19.65;;;;;;;22.83;62.21;101640.13;5063002;28;20045;-66
2023/09/09 08:52:04;;;;;;;29.48;16.45;;;;;;;22.85;61.80;101635.97;5061083;27;20041;-66
2023/09/09 08:54:32;;;;;;;27.25;14.43;;;;;;;22.78;61.76;101623.66;5063519;27;20475;-67
2023/09/09 08:57:02;;;;;;;19.75;12.90;;;;;;;22.88;61.72;101629.13;5056748;27;20049;-68
2023/09/09 08:59:32;;;;;;;27.75;13.15;;;;;;;22.90;62.27;101629.66;5062268;27;20060;-67
2023/09/09 09:02:02;;;;;;;19.38;11.27;;;;;;;22.91;61.78;101629.34;5060720;28;20052;-68
2023/09/09 09:04:33;;;;;;;21.10;11.68;;;;;;;22.92;62.12;101630.19;5062743;27;20057;-68
2023/09/09 09:07:02;;;;;;;22.42;11.27;;;;;;;22.95;62.06;101635.09;5056840;27;20103;-70
2023/09/09 09:09:30;;;;;;;17.58;10.85;;;;;;;22.96;61.96;101636.72;5058793;28;20052;-70
2023/09/09 09:12:00;;;;;;;18.77;10.82;;;;;;;22.98;61.92;101637.25;5059135;27;20049;-69
2023/09/09 09:14:27;;;;;;;18.70;10.27;;;;;;;22.98;62.04;101643.56;5050438;27;20373;-64
2023/09/09 09:16:56;;;;;;;18.77;8.70;;;;;;;22.95;61.82;101635.09;5055268;27;20117;-67
2023/09/09 09:19:27;;;;;;;13.40;9.00;;;;;;;23.03;61.96;101650.94;5058900;27;20047;-68
2023/09/09 09:21:57;;;;;;;18.95;8.95;;;;;;;23.05;62.30;101645.97;5054274;27;20057;-68
2023/09/09 09:24:26;;;;;;;16.33;7.82;;;;;;;23.07;62.23;101652.00;5057825;27;20109;-67
2023/09/09 09:26:55;;;;;;;12.05;6.97;;;;;;;23.09;62.36;101644.31;5056590;28;20074;-67
2023/09/09 09:29:23;;;;;;;15.40;7.95;;;;;;;23.11;62.64;101642.09;5058033;28;20041;-68
2023/09/09 09:31:52;;;;;;;13.40;9.43;;;;;;;23.17;62.25;101645.63;5058059;27;20056;-69
2023/09/09 09:34:20;;;;;;;23.10;9.57;;;;;;;23.20;62.72;101634.88;5058192;28;20454;-67
2023/09/09 09:36:48;;;;;;;17.40;8.70;;;;;;;23.24;62.62;101632.41;5070060;27;20077;-67
2023/09/09 09:39:17;;;;;;;15.07;6.75;;;;;;;;;;5052883;27;21961;-68
2023/09/09 09:41:45;;;;;;;16.67;8.88;;;;;;;23.23;62.95;101622.53;5056597;27;20061;-67
2023/09/09 09:44:20;;;;;;;16.35;6.85;;;;;;;23.31;62.89;101635.63;5056813;27;20066;-70
2023/09/09 09:47:06;;;;;;;18.63;7.20;;;;;;;23.33;61.99;101630.66;5051919;27;20082;-68
2023/09/09 09:49:35;;;;;;;13.95;6.97;;;;;;;23.31;62.10;101622.72;5059485;28;20049;-67
2023/09/09 09:52:04;;;;;;;18.92;6.95;;;;;;;23.36;62.10;101627.34;5061712;28;20175;-68
2023/09/09 09:54:34;;;;;;;14.80;6.43;;;;;;;23.31;62.04;101616.41;5059291;27;20112;-68
2023/09/09 09:57:04;;;;;;;11.65;6.10;;;;;;;23.38;61.61;101634.19;5058644;28;20078;-68
2023/09/09 09:59:34;;;;;;;10.00;5.75;;;;;;;23.43;62.00;101630.56;5057768;27;20145;-68
2023/09/09 10:02:03;;;;;;;9.27;5.57;;;;;;;23.46;61.91;101627.25;5059662;27;20139;-68
2023/09/09 10:04:39;;;;;;;12.00;5.82;;;;;;;23.49;62.03;101632.16;5059378;27;20052;-68
2023/09/09 10:07:11;;;;;;;7.63;5.72;;;;;;;23.52;61.33;101628.84;5060598;28;20101;-69
2023/09/09 10:09:48;;;;;;;10.18;5.50;;;;;;;23.52;61.00;101628.84;5058591;27;20061;-68
2023/09/09 10:12:20;;;;;;;10.65;5.20;;;;;;;23.55;61.31;101625.53;5060048;28;20075;-68
2023/09/09 10:15:06;;;;;;;9.20;5.47;;;;;;;23.57;61.01;101628.81;5057682;28;20124;-69
2023/09/09 10:17:36;;;;;;;11.98;5.78;;;;;;;23.56;59.61;101620.88;5059501;27;20041;-67
2023/09/09 10:20:05;;;;;;;8.63;4.65;;;;;;;23.62;59.25;101630.69;5056453;27;20060;-68
2023/09/09 10:22:34;;;;;;;8.90;4.97;;;;;;;23.66;58.61;101631.75;5062550;27;20061;-66
2023/09/09 10:25:05;;;;;;;6.68;4.53;;;;;;;23.70;58.99;101632.81;5052859;28;20049;-66
2023/09/09 10:27:35;;;;;;;8.15;4.38;;;;;;;23.74;58.63;101633.84;5056055;27;20053;-65
2023/09/09 10:30:04;;;;;;;10.38;4.93;;;;;;;23.77;57.91;101624.22;5054222;28;20045;-66
2023/09/09 10:32:35;;;;;;;8.80;4.82;;;;;;;23.80;57.51;101629.13;5055275;27;20060;-67
2023/09/09 10:35:05;;;;;;;9.02;4.82;;;;;;;23.82;57.28;101629.66;5052276;28;20052;-66
2023/09/09 10:37:35;;;;;;;6.63;4.38;;;;;;;23.82;57.60;101622.25;5057993;28;20053;-67
2023/09/09 10:40:05;;;;;;;6.38;3.97;;;;;;;23.89;57.45;101627.38;5056222;27;20045;-66
2023/09/09 10:42:37;;;;;;;7.82;3.90;;;;;;;23.93;57.61;101617.44;5055646;27;20086;-66
2023/09/09 10:45:28;;;;;;;4.70;4.03;;;;;;;23.97;57.04;101624.00;5052154;28;20045;-67
2023/09/09 10:47:58;;;;;;;5.18;3.60;;;;;;;24.01;57.18;101620.38;5052892;27;20141;-63
2023/09/09 10:50:40;;;;;;;8.20;5.20;;;;;;;24.06;57.35;101621.41;5056492;27;20045;-68
2023/09/09 10:53:21;;;;;;;4.93;4.20;;;;;;;24.11;57.44;101613.09;5052863;28;20105;-65
2023/09/09 10:55:54;;;;;;;6.10;4.28;;;;;;;24.16;57.68;101622.09;5055103;27;20049;-64
2023/09/09 10:58:32;;;;;;;5.72;4.18;;;;;;;24.20;57.77;101623.16;5051848;27;20049;-66
2023/09/09 11:01:00;;;;;;;6.97;4.03;;;;;;;24.27;57.03;101620.03;5052087;28;20053;-65
2023/09/09 11:03:36;;;;;;;6.20;3.95;;;;;;;24.35;56.48;101624.88;5053425;27;20041;-65
2023/09/09 11:06:06;;;;;;;6.13;3.90;;;;;;;24.39;57.23;101619.59;5048383;27;20049;-65
2023/09/09 11:08:38;;;;;;;7.22;4.20;;;;;;;24.38;57.38;101609.72;5059604;27;20053;-65
2023/09/09 11:11:10;;;;;;;7.18;3.63;;;;;;;24.46;57.49;101615.38;5059045;27;20138;-65
2023/09/09 11:13:39;;;;;;;4.63;3.72;;;;;;;24.48;57.50;101604.91;5058599;28;20049;-66
2023/09/09 11:16:07;;;;;;;6.45;3.75;;;;;;;24.54;57.80;101609.22;5056861;27;20045;-66
2023/09/09 11:18:36;;;;;;;5.03;3.90;;;;;;;24.57;57.68;101603.13;5066364;27;20048;-65
2023/09/09 11:21:05;;;;;;;6.45;4.25;;;;;;;24.60;57.13;101609.97;5058678;28;20071;-65
2023/09/09 11:23:33;;;;;;;6.00;3.85;;;;;;;24.61;57.60;101609.66;5059259;27;20057;-65